sensor_id;sensor_type;location;lat;lon;timestamp;pressure;altitude;pressure_sealevel;temperature;humidity
77517;BME280;68414;53.946;27.634;2023-03-25T00:00:40;97407.085938;;;12.520000;77.103516
77517;BME280;68414;53.946;27.634;2023-03-25T00:01:40;97405.140625;;;12.490000;77.122070
77517;BME280;68414;53.946;27.634;2023-03-25T00:03:41;97398.031250;;;12.480000;77.291992
77517;BME280;68414;53.946;27.634;2023-03-25T00:04:41;97402.406250;;;12.420000;77.456055
77517;BME280;68414;53.946;27.634;2023-03-25T00:05:40;97396.882812;;;12.420000;77.542969
77517;BME280;68414;53.946;27.634;2023-03-25T00:06:40;97406.375000;;;12.410000;77.659180
77517;BME280;68414;53.946;27.634;2023-03-25T00:07:41;97396.468750;;;12.430000;77.685547
77517;BME280;68414;53.946;27.634;2023-03-25T00:08:40;97399.234375;;;12.430000;77.490234
77517;BME280;68414;53.946;27.634;2023-03-25T00:09:40;97393.718750;;;12.470000;77.420898
77517;BME280;68414;53.946;27.634;2023-03-25T00:10:40;97402.406250;;;12.420000;77.619141
77517;BME280;68414;53.946;27.634;2023-03-25T00:11:40;97396.906250;;;12.350000;77.464844
77517;BME280;68414;53.946;27.634;2023-03-25T00:12:40;97405.187500;;;12.350000;77.594727
77517;BME280;68414;53.946;27.634;2023-03-25T00:13:40;97400.875000;;;12.340000;77.691406
77517;BME280;68414;53.946;27.634;2023-03-25T00:14:40;97398.085938;;;12.370000;77.817383
77517;BME280;68414;53.946;27.634;2023-03-25T00:15:41;97403.226562;;;12.350000;77.562500
77517;BME280;68414;53.946;27.634;2023-03-25T00:16:40;97400.078125;;;12.330000;77.700195
77517;BME280;68414;53.946;27.634;2023-03-25T00:17:40;97398.515625;;;12.320000;77.819336
77517;BME280;68414;53.946;27.634;2023-03-25T00:18:40;97401.257812;;;12.360000;77.651367
77517;BME280;68414;53.946;27.634;2023-03-25T00:19:40;97400.851562;;;12.410000;77.192383
77517;BME280;68414;53.946;27.634;2023-03-25T00:20:40;97399.265625;;;12.400000;77.071289
77517;BME280;68414;53.946;27.634;2023-03-25T00:21:41;97396.500000;;;12.400000;77.266602
77517;BME280;68414;53.946;27.634;2023-03-25T00:22:42;97398.062500;;;12.440000;76.885742
77517;BME280;68414;53.946;27.634;2023-03-25T00:23:42;97400.031250;;;12.440000;76.883789
77517;BME280;68414;53.946;27.634;2023-03-25T00:24:40;97403.234375;;;12.390000;77.134766
77517;BME280;68414;53.946;27.634;2023-03-25T00:25:40;97405.218750;;;12.310000;77.284180
77517;BME280;68414;53.946;27.634;2023-03-25T00:26:40;97407.953125;;;12.350000;77.334961
77517;BME280;68414;53.946;27.634;2023-03-25T00:27:40;97401.281250;;;12.290000;77.301758
77517;BME280;68414;53.946;27.634;2023-03-25T00:28:40;97401.687500;;;12.270000;77.278320
77517;BME280;68414;53.946;27.634;2023-03-25T00:29:40;97402.070312;;;12.290000;77.389648
77517;BME280;68414;53.946;27.634;2023-03-25T00:30:41;97406.015625;;;12.320000;77.340820
77517;BME280;68414;53.946;27.634;2023-03-25T00:31:40;97404.453125;;;12.270000;77.289062
77517;BME280;68414;53.946;27.634;2023-03-25T00:32:40;97402.484375;;;12.280000;77.138672
77517;BME280;68414;53.946;27.634;2023-03-25T00:33:40;97406.007812;;;12.280000;77.181641
77517;BME280;68414;53.946;27.634;2023-03-25T00:34:40;97402.093750;;;12.260000;77.382812
77517;BME280;68414;53.946;27.634;2023-03-25T00:35:40;97415.109375;;;12.250000;77.480469
77517;BME280;68414;53.946;27.634;2023-03-25T00:36:40;97400.484375;;;12.280000;77.366211
77517;BME280;68414;53.946;27.634;2023-03-25T00:37:40;97408.007812;;;12.280000;77.376953
77517;BME280;68414;53.946;27.634;2023-03-25T00:38:40;97410.328125;;;12.330000;77.320312
77517;BME280;68414;53.946;27.634;2023-03-25T00:39:40;97408.343750;;;12.370000;77.121094
77517;BME280;68414;53.946;27.634;2023-03-25T00:40:40;97409.546875;;;12.360000;76.836914
77517;BME280;68414;53.946;27.634;2023-03-25T00:41:40;97415.859375;;;12.360000;76.903320
77517;BME280;68414;53.946;27.634;2023-03-25T00:42:40;97417.445312;;;12.340000;76.876953
77517;BME280;68414;53.946;27.634;2023-03-25T00:43:40;97408.781250;;;12.320000;76.754883
77517;BME280;68414;53.946;27.634;2023-03-25T00:44:40;97406.796875;;;12.290000;77.041016
77517;BME280;68414;53.946;27.634;2023-03-25T00:45:40;97402.093750;;;12.260000;77.296875
77517;BME280;68414;53.946;27.634;2023-03-25T00:46:40;97405.625000;;;12.260000;77.081055
77517;BME280;68414;53.946;27.634;2023-03-25T00:47:40;97404.062500;;;12.250000;77.274414
77517;BME280;68414;53.946;27.634;2023-03-25T00:48:40;97403.656250;;;12.270000;77.406250
77517;BME280;68414;53.946;27.634;2023-03-25T00:49:40;97402.859375;;;12.260000;77.081055
77517;BME280;68414;53.946;27.634;2023-03-25T00:50:40;97402.890625;;;12.230000;77.248047
77517;BME280;68414;53.946;27.634;2023-03-25T00:51:40;97396.570312;;;12.220000;77.475586
77517;BME280;68414;53.946;27.634;2023-03-25T00:52:40;97404.859375;;;12.260000;77.394531
77517;BME280;68414;53.946;27.634;2023-03-25T00:53:40;97404.859375;;;12.260000;77.361328
77517;BME280;68414;53.946;27.634;2023-03-25T00:54:40;97409.968750;;;12.270000;77.418945
77517;BME280;68414;53.946;27.634;2023-03-25T00:55:40;97411.921875;;;12.300000;77.250000
77517;BME280;68414;53.946;27.634;2023-03-25T00:56:40;97400.125000;;;12.230000;77.041992
77517;BME280;68414;53.946;27.634;2023-03-25T00:57:42;97400.890625;;;12.270000;76.831055
77517;BME280;68414;53.946;27.634;2023-03-25T00:58:40;97398.500000;;;12.360000;76.792969
77517;BME280;68414;53.946;27.634;2023-03-25T00:59:40;97399.671875;;;12.380000;76.754883
77517;BME280;68414;53.946;27.634;2023-03-25T01:00:40;97401.257812;;;12.360000;76.663086
77517;BME280;68414;53.946;27.634;2023-03-25T01:01:40;97396.140625;;;12.310000;76.566406
77517;BME280;68414;53.946;27.634;2023-03-25T01:02:40;97401.664062;;;12.310000;77.087891
77517;BME280;68414;53.946;27.634;2023-03-25T01:03:41;97394.578125;;;12.300000;77.109375
77517;BME280;68414;53.946;27.634;2023-03-25T01:04:40;97394.578125;;;12.260000;77.146484
77517;BME280;68414;53.946;27.634;2023-03-25T01:05:40;97396.164062;;;12.270000;77.212891
77517;BME280;68414;53.946;27.634;2023-03-25T01:06:40;97396.960938;;;12.280000;77.268555
77517;BME280;68414;53.946;27.634;2023-03-25T01:07:40;97393.812500;;;12.220000;77.302734
77517;BME280;68414;53.946;27.634;2023-03-25T01:08:41;97391.437500;;;12.240000;77.371094
77517;BME280;68414;53.946;27.634;2023-03-25T01:09:40;97386.726562;;;12.210000;77.375000
77517;BME280;68414;53.946;27.634;2023-03-25T01:10:40;97389.078125;;;12.230000;77.487305
77517;BME280;68414;53.946;27.634;2023-03-25T01:11:41;97388.671875;;;12.240000;77.273438
77517;BME280;68414;53.946;27.634;2023-03-25T01:12:40;97389.875000;;;12.230000;77.250000
77517;BME280;68414;53.946;27.634;2023-03-25T01:13:40;97392.625000;;;12.190000;77.080078
77517;BME280;68414;53.946;27.634;2023-03-25T01:14:40;97386.718750;;;12.170000;77.293945
77517;BME280;68414;53.946;27.634;2023-03-25T01:15:40;97387.156250;;;12.120000;77.566406
77517;BME280;68414;53.946;27.634;2023-03-25T01:16:40;97384.015625;;;12.100000;77.769531
77517;BME280;68414;53.946;27.634;2023-03-25T01:17:40;97384.015625;;;12.100000;77.584961
77517;BME280;68414;53.946;27.634;2023-03-25T01:18:40;97395.453125;;;12.020000;78.112305
77517;BME280;68414;53.946;27.634;2023-03-25T01:19:40;97386.015625;;;11.990000;78.228516
77517;BME280;68414;53.946;27.634;2023-03-25T01:20:40;97391.093750;;;12.110000;77.976562
77517;BME280;68414;53.946;27.634;2023-03-25T01:21:40;97387.515625;;;12.180000;77.673828
77517;BME280;68414;53.946;27.634;2023-03-25T01:22:40;97392.656250;;;12.160000;77.833008
77517;BME280;68414;53.946;27.634;2023-03-25T01:23:40;97388.312500;;;12.180000;77.642578
77517;BME280;68414;53.946;27.634;2023-03-25T01:24:40;97389.484375;;;12.210000;77.689453
77517;BME280;68414;53.946;27.634;2023-03-25T01:25:40;97389.484375;;;12.210000;77.353516
77517;BME280;68414;53.946;27.634;2023-03-25T01:26:41;97390.664062;;;12.200000;77.429688
77517;BME280;68414;53.946;27.634;2023-03-25T01:27:40;97389.875000;;;12.230000;77.379883
77517;BME280;68414;53.946;27.634;2023-03-25T01:28:41;97390.640625;;;12.240000;77.314453
77517;BME280;68414;53.946;27.634;2023-03-25T01:29:40;97393.039062;;;12.180000;77.109375
77517;BME280;68414;53.946;27.634;2023-03-25T01:30:40;97394.218750;;;12.210000;77.332031
77517;BME280;68414;53.946;27.634;2023-03-25T01:31:40;97395.437500;;;12.120000;77.696289
77517;BME280;68414;53.946;27.634;2023-03-25T01:32:40;97390.687500;;;12.160000;77.486328
77517;BME280;68414;53.946;27.634;2023-03-25T01:33:41;97395.000000;;;12.170000;77.413086
77517;BME280;68414;53.946;27.634;2023-03-25T01:34:40;97397.789062;;;12.140000;77.320312
77517;BME280;68414;53.946;27.634;2023-03-25T01:35:40;97385.953125;;;12.170000;77.422852
77517;BME280;68414;53.946;27.634;2023-03-25T01:36:40;97394.242188;;;12.170000;77.346680
77517;BME280;68414;53.946;27.634;2023-03-25T01:37:40;97393.828125;;;12.180000;77.317383
77517;BME280;68414;53.946;27.634;2023-03-25T01:38:40;97392.625000;;;12.190000;77.047852
77517;BME280;68414;53.946;27.634;2023-03-25T01:39:40;97394.984375;;;12.250000;76.991211
77517;BME280;68414;53.946;27.634;2023-03-25T01:40:44;97398.515625;;;12.290000;76.726562
77517;BME280;68414;53.946;27.634;2023-03-25T01:41:41;97396.523438;;;12.330000;76.625977
77517;BME280;68414;53.946;27.634;2023-03-25T01:42:40;97403.234375;;;12.390000;76.527344
77517;BME280;68414;53.946;27.634;2023-03-25T01:43:40;97398.906250;;;12.340000;76.520508
77517;BME280;68414;53.946;27.634;2023-03-25T01:45:40;97405.992188;;;12.390000;76.559570
77517;BME280;68414;53.946;27.634;2023-03-25T01:46:40;97407.953125;;;12.380000;76.614258
77517;BME280;68414;53.946;27.634;2023-03-25T01:47:40;97405.187500;;;12.350000;76.552734
77517;BME280;68414;53.946;27.634;2023-03-25T01:48:40;97405.187500;;;12.350000;76.715820
77517;BME280;68414;53.946;27.634;2023-03-25T01:49:41;97407.187500;;;12.340000;76.607422
77517;BME280;68414;53.946;27.634;2023-03-25T01:50:41;97404.046875;;;12.320000;76.571289
77517;BME280;68414;53.946;27.634;2023-03-25T01:51:41;97406.781250;;;12.360000;76.597656
77517;BME280;68414;53.946;27.634;2023-03-25T01:52:41;97399.695312;;;12.310000;76.698242
77517;BME280;68414;53.946;27.634;2023-03-25T01:53:40;97400.046875;;;12.370000;76.632812
77517;BME280;68414;53.946;27.634;2023-03-25T01:54:40;97405.578125;;;12.370000;76.512695
77517;BME280;68414;53.946;27.634;2023-03-25T01:55:40;97406.781250;;;12.360000;76.673828
77517;BME280;68414;53.946;27.634;2023-03-25T01:56:40;97407.187500;;;12.340000;76.552734
77517;BME280;68414;53.946;27.634;2023-03-25T01:57:40;97402.429688;;;12.350000;76.650391
77517;BME280;68414;53.946;27.634;2023-03-25T01:58:40;97401.281250;;;12.320000;76.604492
77517;BME280;68414;53.946;27.634;2023-03-25T01:59:40;97406.007812;;;12.280000;76.801758
77517;BME280;68414;53.946;27.634;2023-03-25T02:00:41;97405.625000;;;12.300000;76.805664
77517;BME280;68414;53.946;27.634;2023-03-25T02:01:40;97398.906250;;;12.310000;76.772461
77517;BME280;68414;53.946;27.634;2023-03-25T02:02:41;97403.226562;;;12.350000;76.911133
77517;BME280;68414;53.946;27.634;2023-03-25T02:03:40;97394.531250;;;12.400000;76.498047
77517;BME280;68414;53.946;27.634;2023-03-25T02:07:40;97397.265625;;;12.440000;76.243164
77517;BME280;68414;53.946;27.634;2023-03-25T02:08:40;97399.671875;;;12.380000;76.298828
77517;BME280;68414;53.946;27.634;2023-03-25T02:09:40;97401.640625;;;12.380000;76.579102
77517;BME280;68414;53.946;27.634;2023-03-25T02:10:41;97407.140625;;;12.410000;76.509766
77517;BME280;68414;53.946;27.634;2023-03-25T02:11:40;97410.695312;;;12.420000;76.490234
77517;BME280;68414;53.946;27.634;2023-03-25T02:12:40;97406.734375;;;12.460000;76.530273
77517;BME280;68414;53.946;27.634;2023-03-25T02:13:40;97410.265625;;;12.500000;76.331055
77517;BME280;68414;53.946;27.634;2023-03-25T02:14:40;97407.140625;;;12.450000;76.202148
77517;BME280;68414;53.946;27.634;2023-03-25T02:15:45;97405.140625;;;12.490000;76.220703
77517;BME280;68414;53.946;27.634;2023-03-25T02:18:42;97446.609375;;;12.420000;76.294922
77517;BME280;68414;53.946;27.634;2023-03-25T02:43:43;97444.757812;;;10.980000;69.011719
77517;BME280;68414;53.946;27.634;2023-03-25T02:44:42;97453.406250;;;10.930000;70.034180
77517;BME280;68414;53.946;27.634;2023-03-25T02:46:40;97462.835938;;;10.880000;69.583008
77517;BME280;68414;53.946;27.634;2023-03-25T02:49:42;97467.156250;;;10.820000;69.963867
77517;BME280;68414;53.946;27.634;2023-03-25T02:50:42;97469.453125;;;10.620000;70.040039
77517;BME280;68414;53.946;27.634;2023-03-25T02:51:43;97470.218750;;;10.590000;70.858398
77517;BME280;68414;53.946;27.634;2023-03-25T02:52:45;97476.125000;;;10.610000;71.231445
77517;BME280;68414;53.946;27.634;2023-03-25T02:53:40;97477.351562;;;10.710000;71.333008
77517;BME280;68414;53.946;27.634;2023-03-25T02:54:40;97471.078125;;;10.780000;70.303711
77517;BME280;68414;53.946;27.634;2023-03-25T02:55:40;97482.890625;;;10.850000;70.120117
77517;BME280;68414;53.946;27.634;2023-03-25T02:56:40;97469.539062;;;10.910000;70.496094
77517;BME280;68414;53.946;27.634;2023-03-25T02:57:41;97477.437500;;;10.960000;69.919922
77517;BME280;68414;53.946;27.634;2023-03-25T02:58:40;97463.250000;;;11.010000;69.820312
77517;BME280;68414;53.946;27.634;2023-03-25T02:59:42;97463.648438;;;11.030000;69.920898
77517;BME280;68414;53.946;27.634;2023-03-25T03:00:40;97458.929688;;;11.030000;69.823242
77517;BME280;68414;53.946;27.634;2023-03-25T03:01:40;97458.156250;;;11.060000;69.764648
77517;BME280;68414;53.946;27.634;2023-03-25T03:03:40;97451.453125;;;11.070000;69.406250
77517;BME280;68414;53.946;27.634;2023-03-25T03:05:43;97457.367188;;;11.060000;69.828125
77517;BME280;68414;53.946;27.634;2023-03-25T03:06:40;97449.875000;;;10.990000;70.337891
77517;BME280;68414;53.946;27.634;2023-03-25T03:07:40;97450.250000;;;10.940000;69.430664
77517;BME280;68414;53.946;27.634;2023-03-25T03:12:44;97456.953125;;;10.970000;69.684570
77517;BME280;68414;53.946;27.634;2023-03-25T03:19:41;97469.187500;;;11.100000;68.781250
77517;BME280;68414;53.946;27.634;2023-03-25T03:22:41;97477.046875;;;11.110000;69.185547
77517;BME280;68414;53.946;27.634;2023-03-25T03:24:40;97483.750000;;;11.140000;69.427734
77517;BME280;68414;53.946;27.634;2023-03-25T03:26:42;97487.312500;;;11.110000;69.077148
77517;BME280;68414;53.946;27.634;2023-03-25T03:28:42;97502.234375;;;11.030000;69.042969
77517;BME280;68414;53.946;27.634;2023-03-25T03:32:43;97508.851562;;;10.770000;70.703125
77517;BME280;68414;53.946;27.634;2023-03-25T03:36:42;97519.828125;;;10.660000;71.595703
77517;BME280;68414;53.946;27.634;2023-03-25T03:37:41;97515.882812;;;10.640000;71.905273
77517;BME280;68414;53.946;27.634;2023-03-25T03:38:42;97502.828125;;;10.500000;71.363281
77517;BME280;68414;53.946;27.634;2023-03-25T03:39:40;97509.039062;;;10.330000;72.309570
77517;BME280;68414;53.946;27.634;2023-03-25T03:40:41;97509.484375;;;10.390000;72.686523
77517;BME280;68414;53.946;27.634;2023-03-25T03:41:40;97511.843750;;;10.440000;72.369141
77517;BME280;68414;53.946;27.634;2023-03-25T03:42:45;97506.375000;;;10.510000;72.511719
77517;BME280;68414;53.946;27.634;2023-03-25T03:43:41;97501.664062;;;10.510000;72.567383
77517;BME280;68414;53.946;27.634;2023-03-25T03:44:40;97501.265625;;;10.490000;72.261719
77517;BME280;68414;53.946;27.634;2023-03-25T03:45:41;97486.734375;;;10.560000;71.674805
77517;BME280;68414;53.946;27.634;2023-03-25T03:46:42;97479.671875;;;10.620000;71.458008
77517;BME280;68414;53.946;27.634;2023-03-25T03:47:41;97480.070312;;;10.640000;71.472656
77517;BME280;68414;53.946;27.634;2023-03-25T03:48:41;97482.062500;;;10.670000;71.476562
77517;BME280;68414;53.946;27.634;2023-03-25T03:49:41;97482.421875;;;10.580000;71.679688
77517;BME280;68414;53.946;27.634;2023-03-25T03:51:41;97487.539062;;;10.630000;71.938477
77517;BME280;68414;53.946;27.634;2023-03-25T03:54:50;97474.921875;;;10.550000;71.393555
77517;BME280;68414;53.946;27.634;2023-03-25T03:55:41;97466.265625;;;10.530000;71.541992
77517;BME280;68414;53.946;27.634;2023-03-25T03:56:45;97472.890625;;;10.380000;71.344727
77517;BME280;68414;53.946;27.634;2023-03-25T03:57:41;97463.039062;;;10.370000;71.666016
77517;BME280;68414;53.946;27.634;2023-03-25T03:58:41;97470.125000;;;10.350000;71.716797
77517;BME280;68414;53.946;27.634;2023-03-25T04:01:41;97486.515625;;;10.140000;72.482422
77517;BME280;68414;53.946;27.634;2023-03-25T04:02:41;97490.765625;;;10.040000;72.283203
77517;BME280;68414;53.946;27.634;2023-03-25T04:04:40;97491.398438;;;9.830000;73.091797
77517;BME280;68414;53.946;27.634;2023-03-25T04:05:42;97490.703125;;;9.930000;73.109375
77517;BME280;68414;53.946;27.634;2023-03-25T04:07:42;97480.898438;;;9.960000;72.000000
77517;BME280;68414;53.946;27.634;2023-03-25T04:12:41;97479.500000;;;10.230000;72.140625
77517;BME280;68414;53.946;27.634;2023-03-25T04:13:41;97480.296875;;;10.240000;72.650391
77517;BME280;68414;53.946;27.634;2023-03-25T04:14:40;97475.984375;;;10.260000;72.276367
77517;BME280;68414;53.946;27.634;2023-03-25T04:15:40;97472.843750;;;10.310000;72.057617
77517;BME280;68414;53.946;27.634;2023-03-25T04:16:40;97472.093750;;;10.380000;71.646484
77517;BME280;68414;53.946;27.634;2023-03-25T04:17:40;97466.984375;;;10.400000;71.573242
77517;BME280;68414;53.946;27.634;2023-03-25T04:18:40;97482.750000;;;10.430000;71.438477
77517;BME280;68414;53.946;27.634;2023-03-25T04:19:40;97483.140625;;;10.410000;71.423828
77517;BME280;68414;53.946;27.634;2023-03-25T04:20:40;97482.750000;;;10.430000;71.157227
77517;BME280;68414;53.946;27.634;2023-03-25T04:21:40;97480.390625;;;10.450000;70.716797
77517;BME280;68414;53.946;27.634;2023-03-25T04:22:40;97482.742188;;;10.390000;70.759766
77517;BME280;68414;53.946;27.634;2023-03-25T04:23:40;97492.867188;;;10.250000;71.397461
77517;BME280;68414;53.946;27.634;2023-03-25T04:24:40;97497.515625;;;10.140000;72.190430
77517;BME280;68414;53.946;27.634;2023-03-25T04:25:44;97491.265625;;;10.200000;72.092773
77517;BME280;68414;53.946;27.634;2023-03-25T04:26:41;97496.421875;;;10.290000;71.729492
77517;BME280;68414;53.946;27.634;2023-03-25T04:27:40;97499.218750;;;10.360000;71.545898
77517;BME280;68414;53.946;27.634;2023-03-25T04:28:40;97505.171875;;;10.410000;71.260742
77517;BME280;68414;53.946;27.634;2023-03-25T04:29:40;97504.781250;;;10.460000;71.324219
77517;BME280;68414;53.946;27.634;2023-03-25T04:30:40;97507.093750;;;10.370000;71.352539
77517;BME280;68414;53.946;27.634;2023-03-25T04:31:40;97506.625000;;;10.210000;71.304688
77517;BME280;68414;53.946;27.634;2023-03-25T04:32:40;97503.476562;;;10.230000;71.556641
77517;BME280;68414;53.946;27.634;2023-03-25T04:33:41;97503.921875;;;10.280000;71.490234
77517;BME280;68414;53.946;27.634;2023-03-25T04:34:40;97510.632812;;;10.340000;71.477539
77517;BME280;68414;53.946;27.634;2023-03-25T04:35:40;97504.375000;;;10.410000;71.022461
77517;BME280;68414;53.946;27.634;2023-03-25T04:36:40;97508.726562;;;10.450000;71.008789
77517;BME280;68414;53.946;27.634;2023-03-25T04:37:40;97507.093750;;;10.370000;71.211914
77517;BME280;68414;53.946;27.634;2023-03-25T04:38:40;97512.632812;;;10.410000;70.708984
77517;BME280;68414;53.946;27.634;2023-03-25T04:39:40;97518.937500;;;10.410000;70.383789
77517;BME280;68414;53.946;27.634;2023-03-25T04:40:40;97517.289062;;;10.300000;70.030273
77517;BME280;68414;53.946;27.634;2023-03-25T04:41:40;97520.437500;;;10.280000;70.321289
77517;BME280;68414;53.946;27.634;2023-03-25T04:42:40;97515.695312;;;10.290000;70.376953
77517;BME280;68414;53.946;27.634;2023-03-25T04:43:40;97521.250000;;;10.360000;70.387695
77517;BME280;68414;53.946;27.634;2023-03-25T04:44:40;97515.781250;;;10.390000;69.958984
77517;BME280;68414;53.946;27.634;2023-03-25T04:45:40;97515.390625;;;10.410000;69.961914
77517;BME280;68414;53.946;27.634;2023-03-25T04:46:41;97510.671875;;;10.410000;69.745117
77517;BME280;68414;53.946;27.634;2023-03-25T04:47:40;97513.781250;;;10.360000;70.051758
77517;BME280;68414;53.946;27.634;2023-03-25T04:48:40;97509.421875;;;10.280000;70.321289
77517;BME280;68414;53.946;27.634;2023-03-25T04:49:40;97507.031250;;;10.270000;70.458984
77517;BME280;68414;53.946;27.634;2023-03-25T04:50:40;97500.726562;;;10.230000;69.890625
77517;BME280;68414;53.946;27.634;2023-03-25T04:51:40;97499.171875;;;10.250000;69.557617
77517;BME280;68414;53.946;27.634;2023-03-25T04:52:40;97499.976562;;;10.290000;68.785156
77517;BME280;68414;53.946;27.634;2023-03-25T04:53:40;97493.718750;;;10.360000;67.994141
77517;BME280;68414;53.946;27.634;2023-03-25T04:54:40;97497.273438;;;10.400000;68.053711
77517;BME280;68414;53.946;27.634;2023-03-25T04:55:40;97501.218750;;;10.390000;68.550781
77517;BME280;68414;53.946;27.634;2023-03-25T04:56:40;97509.890625;;;10.440000;68.461914
77517;BME280;68414;53.946;27.634;2023-03-25T04:57:40;97507.828125;;;10.270000;68.044922
77517;BME280;68414;53.946;27.634;2023-03-25T04:58:41;97522.750000;;;10.230000;68.211914
77517;BME280;68414;53.946;27.634;2023-03-25T04:59:40;97514.078125;;;10.170000;68.083984
77517;BME280;68414;53.946;27.634;2023-03-25T05:00:40;97530.500000;;;10.100000;67.857422
77517;BME280;68414;53.946;27.634;2023-03-25T05:01:40;97529.390625;;;10.150000;67.874023
77517;BME280;68414;53.946;27.634;2023-03-25T05:03:40;97519.828125;;;9.980000;68.541992
77517;BME280;68414;53.946;27.634;2023-03-25T05:04:40;97528.500000;;;10.040000;68.701172
77517;BME280;68414;53.946;27.634;2023-03-25T05:05:40;97526.093750;;;9.990000;67.751953
77517;BME280;68414;53.946;27.634;2023-03-25T05:06:41;97521.382812;;;9.990000;68.120117
77517;BME280;68414;53.946;27.634;2023-03-25T05:07:40;97531.187500;;;9.970000;68.225586
77517;BME280;68414;53.946;27.634;2023-03-25T05:08:40;97529.687500;;;10.030000;68.234375
77517;BME280;68414;53.946;27.634;2023-03-25T05:09:40;97529.781250;;;10.130000;68.282227
77517;BME280;68414;53.946;27.634;2023-03-25T05:10:40;97526.242188;;;10.160000;67.779297
77517;BME280;68414;53.946;27.634;2023-03-25T05:11:40;97519.992188;;;10.230000;67.713867
77517;BME280;68414;53.946;27.634;2023-03-25T05:12:40;97523.492188;;;10.160000;67.335938
77517;BME280;68414;53.946;27.634;2023-03-25T05:13:40;97520.234375;;;10.040000;67.488281
77517;BME280;68414;53.946;27.634;2023-03-25T05:14:40;97523.000000;;;10.070000;67.602539
77517;BME280;68414;53.946;27.634;2023-03-25T05:15:40;97522.195312;;;10.030000;67.347656
77517;BME280;68414;53.946;27.634;2023-03-25T05:16:40;97522.195312;;;10.030000;66.838867
77517;BME280;68414;53.946;27.634;2023-03-25T05:17:40;97520.625000;;;10.020000;67.206055
77517;BME280;68414;53.946;27.634;2023-03-25T05:18:40;97524.484375;;;9.940000;67.355469
77517;BME280;68414;53.946;27.634;2023-03-25T05:19:40;97527.937500;;;9.800000;67.701172
77517;BME280;68414;53.946;27.634;2023-03-25T05:20:41;97525.265625;;;9.910000;68.042969
77517;BME280;68414;53.946;27.634;2023-03-25T05:21:40;97524.140625;;;9.990000;68.043945
77517;BME280;68414;53.946;27.634;2023-03-25T05:22:40;97524.640625;;;10.120000;67.674805
77517;BME280;68414;53.946;27.634;2023-03-25T05:23:40;97519.992188;;;10.230000;67.475586
77517;BME280;68414;53.946;27.634;2023-03-25T05:24:40;97513.781250;;;10.330000;67.025391
77517;BME280;68414;53.946;27.634;2023-03-25T05:25:40;97527.562500;;;10.400000;67.274414
77517;BME280;68414;53.946;27.634;2023-03-25T05:26:40;97532.703125;;;10.410000;66.874023
77517;BME280;68414;53.946;27.634;2023-03-25T05:27:40;97546.812500;;;10.330000;67.144531
77517;BME280;68414;53.946;27.634;2023-03-25T05:28:40;97538.562500;;;10.360000;67.343750
77517;BME280;68414;53.946;27.634;2023-03-25T05:29:40;97537.375000;;;10.370000;67.139648
77517;BME280;68414;53.946;27.634;2023-03-25T05:30:40;97541.734375;;;10.420000;67.277344
77517;BME280;68414;53.946;27.634;2023-03-25T05:31:41;97534.304688;;;10.460000;66.274414
77517;BME280;68414;53.946;27.634;2023-03-25T05:32:40;97539.820312;;;10.490000;66.671875
77517;BME280;68414;53.946;27.634;2023-03-25T05:33:40;97543.375000;;;10.530000;66.374023
77517;BME280;68414;53.946;27.634;2023-03-25T05:34:40;97547.328125;;;10.560000;66.799805
77517;BME280;68414;53.946;27.634;2023-03-25T05:35:40;97557.101562;;;10.460000;66.872070
77517;BME280;68414;53.946;27.634;2023-03-25T05:36:42;97550.437500;;;10.470000;67.102539
77517;BME280;68414;53.946;27.634;2023-03-25T05:37:40;97552.382812;;;10.430000;66.596680
77517;BME280;68414;53.946;27.634;2023-03-25T05:38:40;97550.781250;;;10.420000;67.169922
77517;BME280;68414;53.946;27.634;2023-03-25T05:39:40;97550.734375;;;10.320000;66.622070